Time;durP1;ratioP1;P1;durP2;ratioP2;P2;SDS_P1;SDS_P2;PMS_P1;PMS_P2;Temp;Humidity;BMP_temperature;BMP_pressure;BME280_temperature;BME280_humidity;BME280_pressure;Samples;Min_cycle;Max_cycle;Signal;HPM_P1;HPM_P2
2022/02/27 00:00:12;;;;;;;89.27;37.90;;;1.60;99.90;;;;;;4855236;29;20199;-87
2022/02/27 00:02:38;;;;;;;86.40;40.83;;;1.50;99.90;;;;;;4854202;29;20450;-88
2022/02/27 00:05:04;;;;;;;85.40;41.00;;;1.50;99.90;;;;;;4853511;29;20188;-87
2022/02/27 00:07:30;;;;;;;82.27;43.63;;;1.60;99.90;;;;;;4854546;29;20420;-87
2022/02/27 00:09:56;;;;;;;83.80;40.07;;;1.60;99.90;;;;;;4853321;29;20496;-88
2022/02/27 00:12:21;;;;;;;85.73;40.03;;;1.50;99.90;;;;;;4852403;29;20203;-87
2022/02/27 00:14:47;;;;;;;89.80;45.97;;;1.50;99.90;;;;;;4853759;29;20429;-87
2022/02/27 00:17:13;;;;;;;79.07;33.97;;;1.40;99.90;;;;;;4851581;29;20224;-88
2022/02/27 00:19:38;;;;;;;83.77;36.60;;;1.40;99.90;;;;;;4853639;29;20176;-87
2022/02/27 00:22:04;;;;;;;85.70;40.00;;;1.40;99.90;;;;;;4853660;29;20613;-87
2022/02/27 00:24:30;;;;;;;84.50;39.63;;;1.40;99.90;;;;;;4852712;29;20199;-88
2022/02/27 00:26:56;;;;;;;83.13;37.70;;;1.40;99.90;;;;;;4851929;29;20436;-87
2022/02/27 00:29:22;;;;;;;84.90;37.60;;;1.40;99.90;;;;;;4852879;29;20188;-87
2022/02/27 00:31:47;;;;;;;87.57;39.50;;;1.30;99.90;;;;;;4851549;29;20200;-87
2022/02/27 00:34:13;;;;;;;85.23;36.73;;;1.30;99.90;;;;;;4852066;29;20205;-87
2022/02/27 00:36:39;;;;;;;87.27;32.80;;;1.30;99.90;;;;;;4852591;29;20184;-87
2022/02/27 00:39:04;;;;;;;85.70;37.17;;;1.40;99.90;;;;;;4852385;29;20176;-87
2022/02/27 00:41:30;;;;;;;83.40;33.70;;;1.30;99.90;;;;;;4852117;29;20203;-87
2022/02/27 00:43:56;;;;;;;84.23;37.97;;;1.30;99.90;;;;;;4851052;29;20208;-87
2022/02/27 00:46:22;;;;;;;84.30;34.90;;;1.30;99.90;;;;;;4851665;29;20251;-87
2022/02/27 00:48:47;;;;;;;82.50;33.83;;;1.20;99.90;;;;;;4851878;29;20562;-87
2022/02/27 00:51:13;;;;;;;82.90;36.73;;;1.30;99.90;;;;;;4851082;29;20210;-87
2022/02/27 00:53:39;;;;;;;84.40;39.30;;;1.30;99.90;;;;;;4850892;29;20168;-87
2022/02/27 00:56:05;;;;;;;83.77;37.00;;;1.20;99.90;;;;;;4851648;29;20433;-87
2022/02/27 00:58:31;;;;;;;84.85;41.17;;;1.20;99.90;;;;;;4850298;29;20552;-87
2022/02/27 01:01:00;;;;;;;81.37;37.67;;;1.20;99.90;;;;;;4852162;29;20176;-88
2022/02/27 01:03:26;;;;;;;85.25;36.60;;;1.30;99.90;;;;;;4851837;29;20432;-87
2022/02/27 01:05:52;;;;;;;85.55;36.60;;;1.30;99.90;;;;;;4850669;29;20303;-87
2022/02/27 01:08:17;;;;;;;82.57;34.97;;;1.30;99.90;;;;;;4849594;29;20328;-88
2022/02/27 01:10:43;;;;;;;92.90;37.50;;;1.20;99.90;;;;;;4850434;29;20425;-88
2022/02/27 01:13:09;;;;;;;88.67;41.83;;;1.20;99.90;;;;;;4850304;29;20649;-87
2022/02/27 01:15:34;;;;;;;94.43;67.60;;;1.20;99.90;;;;;;4849275;29;20259;-88
2022/02/27 01:18:00;;;;;;;92.03;63.13;;;1.10;99.90;;;;;;4850289;29;20170;-87
2022/02/27 01:20:26;;;;;;;96.10;61.33;;;1.20;99.90;;;;;;4850343;29;20651;-87
2022/02/27 01:22:51;;;;;;;92.10;58.87;;;1.10;99.90;;;;;;4850302;29;20180;-87
2022/02/27 01:25:17;;;;;;;100.43;69.97;;;1.10;99.90;;;;;;4849907;29;20168;-87
2022/02/27 01:27:43;;;;;;;87.97;47.10;;;1.10;99.90;;;;;;4849740;29;20203;-87
2022/02/27 01:30:12;;;;;;;85.97;52.07;;;1.10;99.90;;;;;;4849064;29;20484;-87
2022/02/27 01:32:38;;;;;;;91.88;64.88;;;1.10;99.90;;;;;;4848057;29;20203;-87
2022/02/27 01:35:09;;;;;;;87.83;56.27;;;1.10;99.90;;;;;;4848458;29;20183;-87
2022/02/27 01:37:36;;;;;;;88.97;50.70;;;1.10;99.90;;;;;;4849772;29;20453;-87
2022/02/27 01:40:03;;;;;;;94.65;70.43;;;1.10;99.90;;;;;;4847838;29;20172;-87
2022/02/27 01:42:28;;;;;;;91.90;61.03;;;1.00;99.90;;;;;;4849336;29;20176;-87
2022/02/27 01:44:54;;;;;;;103.57;80.20;;;1.00;99.90;;;;;;4847447;29;20565;-87
2022/02/27 01:47:20;;;;;;;99.73;74.77;;;1.00;99.90;;;;;;4848932;29;20243;-87
2022/02/27 01:49:47;;;;;;;97.40;69.53;;;1.10;99.90;;;;;;4847162;29;20549;-87
2022/02/27 01:52:15;;;;;;;94.75;69.53;;;1.00;99.90;;;;;;4847351;29;20256;-87
2022/02/27 01:54:42;;;;;;;96.07;69.50;;;1.00;99.90;;;;;;4847820;29;20172;-87
2022/02/27 01:57:10;;;;;;;90.18;59.72;;;1.00;99.90;;;;;;4847785;29;20212;-88
2022/02/27 01:59:37;;;;;;;89.85;57.63;;;1.00;99.90;;;;;;4847348;29;20180;-87
2022/02/27 02:02:04;;;;;;;91.75;60.00;;;0.90;99.90;;;;;;4848725;29;20180;-87
2022/02/27 02:04:31;;;;;;;92.93;64.28;;;0.90;99.90;;;;;;4846406;29;20264;-87
2022/02/27 02:06:57;;;;;;;95.03;73.53;;;0.90;99.90;;;;;;4846443;29;20196;-87
2022/02/27 02:09:23;;;;;;;87.75;54.50;;;0.90;99.90;;;;;;4847782;29;20667;-88
2022/02/27 02:11:49;;;;;;;90.33;58.00;;;0.90;99.90;;;;;;4847458;29;20192;-88
2022/02/27 02:14:18;;;;;;;100.75;76.53;;;0.90;99.90;;;;;;4846143;29;20224;-87
2022/02/27 02:16:53;;;;;;;95.50;59.63;;;0.80;99.90;;;;;;4847179;29;20248;-87
2022/02/27 02:19:22;;;;;;;96.75;67.05;;;0.90;99.90;;;;;;4847141;29;20254;-87
2022/02/27 02:21:54;;;;;;;94.65;68.10;;;0.80;99.90;;;;;;4845422;29;20267;-87
2022/02/27 02:24:21;;;;;;;95.10;61.72;;;0.80;99.90;;;;;;4845297;29;20297;-87
2022/02/27 02:26:47;;;;;;;91.25;55.50;;;0.80;99.90;;;;;;4846346;29;20192;-87
2022/02/27 02:29:15;;;;;;;92.10;56.90;;;0.80;99.90;;;;;;4846475;29;20183;-87
2022/02/27 02:31:41;;;;;;;88.20;51.63;;;0.80;99.90;;;;;;4845082;29;20195;-87
2022/02/27 02:34:10;;;;;;;90.60;46.63;;;0.80;99.90;;;;;;4845379;29;20236;-86
2022/02/27 02:36:37;;;;;;;96.18;70.57;;;0.70;99.90;;;;;;4845557;29;20270;-87
2022/02/27 02:39:05;;;;;;;87.32;58.40;;;0.60;99.90;;;;;;4845618;29;20168;-87
2022/02/27 02:41:31;;;;;;;92.72;70.18;;;0.60;99.90;;;;;;4846704;29;20176;-87
2022/02/27 02:43:57;;;;;;;92.03;55.53;;;0.60;99.90;;;;;;4846784;29;20525;-87
2022/02/27 02:46:23;;;;;;;94.45;66.72;;;0.50;99.90;;;;;;4845217;29;21028;-87
2022/02/27 02:48:50;;;;;;;94.28;66.10;;;0.50;99.90;;;;;;4845607;29;20644;-87
2022/02/27 02:51:15;;;;;;;87.22;53.13;;;0.50;99.90;;;;;;4845030;29;20286;-87
2022/02/27 02:53:41;;;;;;;91.43;63.13;;;0.40;99.90;;;;;;4846643;29;20729;-87
2022/02/27 02:56:08;;;;;;;98.90;73.50;;;0.40;99.90;;;;;;4844761;29;20441;-87
2022/02/27 02:58:36;;;;;;;92.65;64.18;;;0.40;99.90;;;;;;4844841;29;20260;-87
2022/02/27 03:01:02;;;;;;;93.57;57.80;;;0.30;99.90;;;;;;4844386;29;20168;-87
2022/02/27 03:03:29;;;;;;;94.38;60.63;;;0.30;99.90;;;;;;4845393;29;20176;-87
2022/02/27 03:05:54;;;;;;;93.38;61.65;;;0.30;99.90;;;;;;4845281;29;20220;-88
2022/02/27 03:08:21;;;;;;;91.87;55.43;;;0.30;99.90;;;;;;4843717;29;20544;-87
2022/02/27 03:10:46;;;;;;;98.60;67.60;;;0.30;99.90;;;;;;4844600;29;20210;-87
2022/02/27 03:13:12;;;;;;;87.33;57.53;;;0.30;99.90;;;;;;4843389;29;20195;-87
2022/02/27 03:15:38;;;;;;;90.23;65.17;;;0.20;99.90;;;;;;4842755;29;20623;-87
2022/02/27 03:18:04;;;;;;;89.23;60.17;;;0.30;99.90;;;;;;4842542;29;20421;-87
2022/02/27 03:20:30;;;;;;;91.00;64.95;;;0.30;99.90;;;;;;4842175;29;20460;-87
2022/02/27 03:22:56;;;;;;;92.45;68.97;;;0.30;99.90;;;;;;4842945;29;20244;-87
2022/02/27 03:25:22;;;;;;;85.47;51.03;;;0.30;99.90;;;;;;4842839;29;20231;-87
2022/02/27 03:27:48;;;;;;;84.30;51.07;;;0.30;99.90;;;;;;4842606;29;20541;-87
2022/02/27 03:30:15;;;;;;;95.65;69.00;;;0.30;99.90;;;;;;4842779;29;20471;-87
2022/02/27 03:32:46;;;;;;;91.47;62.20;;;0.30;99.90;;;;;;4843220;29;20195;-88
2022/02/27 03:35:12;;;;;;;96.65;67.85;;;0.30;99.90;;;;;;4842347;29;20621;-87
2022/02/27 03:37:38;;;;;;;94.15;66.38;;;0.30;99.90;;;;;;4842592;29;20184;-87
2022/02/27 03:40:04;;;;;;;90.03;59.93;;;0.30;99.90;;;;;;4842752;29;20179;-88
2022/02/27 03:42:30;;;;;;;87.78;58.67;;;0.30;99.90;;;;;;4843328;29;20183;-87
2022/02/27 03:44:56;;;;;;;89.67;55.67;;;0.30;99.90;;;;;;4842095;29;20644;-87
2022/02/27 03:47:21;;;;;;;84.87;49.70;;;0.30;99.90;;;;;;4842010;29;20212;-87
2022/02/27 03:49:47;;;;;;;85.87;53.20;;;0.40;99.90;;;;;;4842998;29;20259;-87
2022/02/27 03:52:13;;;;;;;93.90;62.50;;;0.40;99.90;;;;;;4841647;29;20206;-87
2022/02/27 03:54:38;;;;;;;90.80;57.80;;;0.40;99.90;;;;;;4841764;29;20197;-87
2022/02/27 03:57:04;;;;;;;94.90;58.30;;;0.50;99.90;;;;;;4842975;29;20192;-87
2022/02/27 03:59:30;;;;;;;92.03;57.83;;;0.50;99.90;;;;;;4841857;29;20233;-87
2022/02/27 04:01:56;;;;;;;93.57;64.07;;;0.40;99.90;;;;;;4843153;29;20417;-87
2022/02/27 04:04:22;;;;;;;92.60;63.83;;;0.40;99.90;;;;;;4843038;29;20188;-87
2022/02/27 04:06:47;;;;;;;92.27;66.67;;;0.40;99.90;;;;;;4843439;29;20431;-87
2022/02/27 04:09:13;;;;;;;91.50;61.37;;;0.30;99.90;;;;;;4841750;29;20179;-87
2022/02/27 04:11:39;;;;;;;89.93;67.03;;;0.30;99.90;;;;;;4843711;29;20219;-87
2022/02/27 04:14:05;;;;;;;99.27;61.40;;;0.40;99.90;;;;;;4843524;29;20172;-87
2022/02/27 04:16:30;;;;;;;92.80;56.60;;;0.40;99.90;;;;;;4843177;29;20206;-87
2022/02/27 04:18:56;;;;;;;87.37;48.53;;;0.30;99.90;;;;;;4842125;29;20196;-87
2022/02/27 04:21:22;;;;;;;83.80;49.00;;;0.30;99.90;;;;;;4843749;29;20183;-87
2022/02/27 04:23:48;;;;;;;86.93;48.33;;;0.30;99.90;;;;;;4843169;29;20186;-87
2022/02/27 04:26:13;;;;;;;89.03;51.97;;;0.30;99.90;;;;;;4842124;29;20286;-87
2022/02/27 04:28:39;;;;;;;88.70;55.40;;;0.40;99.90;;;;;;4844084;29;20172;-88
2022/02/27 04:31:05;;;;;;;94.97;64.80;;;0.50;99.90;;;;;;4844116;29;20793;-87
2022/02/27 04:33:32;;;;;;;95.23;65.33;;;0.50;99.90;;;;;;4846283;29;20608;-87
2022/02/27 04:35:57;;;;;;;91.13;62.45;;;0.60;99.90;;;;;;4845175;29;20485;-87
2022/02/27 04:38:23;;;;;;;87.70;59.37;;;0.50;99.90;;;;;;4846460;29;20172;-87
2022/02/27 04:40:49;;;;;;;95.40;57.97;;;0.50;99.90;;;;;;4845102;29;20265;-87
2022/02/27 04:43:15;;;;;;;94.63;52.47;;;0.50;99.90;;;;;;4845689;29;20187;-87
2022/02/27 04:45:41;;;;;;;82.53;49.55;;;0.40;99.90;;;;;;4846207;29;20192;-87
2022/02/27 04:48:07;;;;;;;89.80;54.40;;;0.40;99.90;;;;;;4846501;29;20652;-87
2022/02/27 04:50:33;;;;;;;85.37;43.10;;;0.30;99.90;;;;;;4845009;29;20183;-87
2022/02/27 04:52:59;;;;;;;87.10;52.63;;;0.40;99.90;;;;;;4844457;29;20505;-88
2022/02/27 04:55:24;;;;;;;89.97;59.17;;;0.40;99.90;;;;;;4845481;29;20188;-87
2022/02/27 04:57:50;;;;;;;86.37;53.70;;;0.30;99.90;;;;;;4845627;29;20585;-87
2022/02/27 05:00:16;;;;;;;85.60;50.73;;;0.30;99.90;;;;;;4844383;29;20732;-87
2022/02/27 05:02:42;;;;;;;90.20;56.42;;;0.30;99.90;;;;;;4911123;23;20699;-88
2022/02/27 05:05:08;;;;;;;86.50;50.73;;;0.30;99.90;;;;;;4862012;29;20163;-89
2022/02/27 05:07:34;;;;;;;88.22;50.15;;;0.30;99.90;;;;;;4862010;29;20423;-89
2022/02/27 05:10:00;;;;;;;83.77;48.80;;;0.30;99.90;;;;;;4863773;29;20167;-89
2022/02/27 05:12:26;;;;;;;89.13;49.00;;;0.30;99.90;;;;;;4861882;29;20290;-89
2022/02/27 05:14:52;;;;;;;87.67;47.13;;;0.20;99.90;;;;;;4863140;29;20633;-89
2022/02/27 05:17:18;;;;;;;85.90;46.63;;;0.20;99.90;;;;;;4863631;29;20428;-88
2022/02/27 05:19:47;;;;;;;83.67;50.83;;;0.10;99.90;;;;;;4863253;29;20434;-89
2022/02/27 05:22:12;;;;;;;85.55;46.03;;;0.20;99.90;;;;;;4863058;29;20407;-89
2022/02/27 05:24:38;;;;;;;83.23;45.70;;;0.20;99.90;;;;;;4861747;29;20605;-89
2022/02/27 05:27:04;;;;;;;87.77;49.50;;;0.20;99.90;;;;;;4861649;29;20616;-88
2022/02/27 05:29:29;;;;;;;82.60;46.30;;;0.30;99.90;;;;;;4862879;29;20716;-89
2022/02/27 05:31:59;;;;;;;84.97;44.03;;;0.30;99.90;;;;;;4863007;29;20195;-89
2022/02/27 05:34:25;;;;;;;88.05;51.85;;;0.30;99.90;;;;;;4862757;29;20560;-89
2022/02/27 05:36:53;;;;;;;86.82;43.28;;;0.30;99.90;;;;;;4863185;29;20690;-89
2022/02/27 05:39:19;;;;;;;91.60;60.38;;;0.30;99.90;;;;;;4862698;29;20167;-89
2022/02/27 05:41:45;;;;;;;87.60;51.60;;;0.30;99.90;;;;;;4861730;29;20172;-89
2022/02/27 05:44:11;;;;;;;82.53;46.97;;;0.30;99.90;;;;;;4862586;29;20650;-88
2022/02/27 05:46:36;;;;;;;84.07;47.97;;;0.30;99.90;;;;;;4862508;29;20315;-89
2022/02/27 05:49:02;;;;;;;85.47;51.67;;;0.30;99.90;;;;;;4862503;29;20671;-89
2022/02/27 05:51:28;;;;;;;85.40;47.77;;;0.30;99.90;;;;;;4862520;29;20199;-89
2022/02/27 05:53:53;;;;;;;82.07;46.20;;;0.30;99.90;;;;;;4862758;29;20609;-89
2022/02/27 05:56:19;;;;;;;82.17;45.30;;;0.30;99.90;;;;;;4862496;29;20611;-89
2022/02/27 05:58:45;;;;;;;82.70;47.27;;;0.30;99.90;;;;;;4861146;29;20416;-89
2022/02/27 06:01:10;;;;;;;80.70;46.67;;;0.30;99.90;;;;;;4862590;29;20182;-89
2022/02/27 06:03:39;;;;;;;81.97;46.80;;;0.30;99.90;;;;;;4862468;29;20193;-89
2022/02/27 06:06:05;;;;;;;87.45;46.13;;;0.20;99.90;;;;;;4860901;29;20247;-89
2022/02/27 06:08:31;;;;;;;80.97;37.97;;;0.30;99.90;;;;;;4862152;29;20569;-89
2022/02/27 06:10:57;;;;;;;85.57;50.07;;;0.30;99.90;;;;;;4861401;29;20409;-89
2022/02/27 06:13:22;;;;;;;90.85;57.38;;;0.30;99.90;;;;;;4860874;29;20202;-89
2022/02/27 06:15:48;;;;;;;83.00;48.33;;;0.30;99.90;;;;;;4862286;29;20679;-89
2022/02/27 06:18:14;;;;;;;83.13;39.60;;;0.30;99.90;;;;;;4862030;29;20164;-89
2022/02/27 06:20:46;;;;;;;85.90;48.70;;;0.20;99.90;;;;;;4860742;29;20206;-89
2022/02/27 06:23:12;;;;;;;84.35;51.03;;;0.20;99.90;;;;;;4861945;29;20183;-89
2022/02/27 06:25:37;;;;;;;81.80;46.97;;;0.20;99.90;;;;;;4862043;29;20585;-89
2022/02/27 06:28:06;;;;;;;85.27;53.37;;;0.20;99.90;;;;;;4860650;29;20412;-89
2022/02/27 06:30:34;;;;;;;82.85;46.03;;;0.20;99.90;;;;;;4861841;29;20529;-88
2022/02/27 06:33:00;;;;;;;79.70;35.38;;;0.20;99.90;;;;;;4861982;29;20223;-89
2022/02/27 06:35:29;;;;;;;78.70;35.93;;;0.10;99.90;;;;;;4860337;29;20199;-89
2022/02/27 06:37:55;;;;;;;86.68;44.50;;;0.20;99.90;;;;;;4860732;29;20425;-89
2022/02/27 06:40:21;;;;;;;85.53;46.40;;;0.10;99.90;;;;;;4862036;29;20667;-89
2022/02/27 06:42:47;;;;;;;83.55;45.15;;;0.20;99.90;;;;;;4861985;29;20408;-89
2022/02/27 06:45:15;;;;;;;82.15;43.45;;;0.20;99.90;;;;;;4860514;29;20316;-89
2022/02/27 06:47:44;;;;;;;84.10;45.58;;;0.20;99.90;;;;;;4860595;29;20194;-89
2022/02/27 06:50:10;;;;;;;82.53;43.20;;;0.30;99.90;;;;;;4861531;29;20180;-89
2022/02/27 06:52:36;;;;;;;82.43;42.60;;;0.30;99.90;;;;;;4861348;29;20290;-89
2022/02/27 06:55:06;;;;;;;80.88;47.47;;;0.30;99.90;;;;;;4859951;29;20175;-87
2022/02/27 06:57:37;;;;;;;87.13;45.30;;;0.30;99.90;;;;;;4861406;29;20188;-89
2022/02/27 07:00:06;;;;;;;83.35;49.38;;;0.40;99.90;;;;;;4861503;29;20199;-89
2022/02/27 07:02:35;;;;;;;88.00;39.97;;;0.40;99.90;;;;;;4861470;29;20183;-89
2022/02/27 07:05:01;;;;;;;85.25;43.55;;;0.40;99.90;;;;;;4861389;29;20648;-89
2022/02/27 07:07:27;;;;;;;88.00;50.95;;;0.50;99.90;;;;;;4861436;29;20203;-89
2022/02/27 07:09:53;;;;;;;78.63;40.87;;;0.50;99.90;;;;;;4861455;29;20179;-89
2022/02/27 07:12:19;;;;;;;84.57;43.50;;;0.60;99.90;;;;;;4859793;29;20710;-88
2022/02/27 07:14:45;;;;;;;80.73;38.27;;;0.60;99.90;;;;;;4861190;29;20171;-88
2022/02/27 07:17:11;;;;;;;83.40;34.70;;;0.70;99.90;;;;;;4859819;29;20735;-88
2022/02/27 07:19:36;;;;;;;81.27;35.60;;;0.80;99.90;;;;;;4859933;29;20187;-88
2022/02/27 07:22:04;;;;;;;85.87;46.93;;;0.80;99.90;;;;;;4861280;29;20174;-89
2022/02/27 07:24:29;;;;;;;84.85;45.58;;;0.80;99.90;;;;;;4859803;29;20416;-89
2022/02/27 07:26:55;;;;;;;80.27;44.80;;;0.90;99.90;;;;;;4861225;29;20199;-88
2022/02/27 07:29:20;;;;;;;85.07;53.90;;;0.90;99.90;;;;;;4861348;29;20261;-88
2022/02/27 07:31:46;;;;;;;85.97;52.97;;;1.00;99.90;;;;;;4859622;29;20202;-88
2022/02/27 07:34:12;;;;;;;82.33;38.77;;;1.00;99.90;;;;;;4860851;29;20517;-88
2022/02/27 07:36:38;;;;;;;87.03;46.97;;;1.10;99.90;;;;;;4859615;29;20195;-88
2022/02/27 07:39:04;;;;;;;85.72;45.15;;;1.20;99.90;;;;;;4859630;29;20408;-88
2022/02/27 07:41:30;;;;;;;83.63;47.57;;;1.20;99.90;;;;;;4859611;29;20522;-88
2022/02/27 07:43:56;;;;;;;76.97;39.20;;;1.30;99.90;;;;;;4859607;29;20179;-87
2022/02/27 07:46:24;;;;;;;92.28;56.85;;;1.30;99.90;;;;;;4861216;29;20471;-88
2022/02/27 07:48:50;;;;;;;82.60;34.95;;;1.40;99.90;;;;;;4860799;29;20258;-88
2022/02/27 07:51:16;;;;;;;85.80;33.20;;;1.40;99.90;;;;;;4860657;29;20290;-87
2022/02/27 07:53:42;;;;;;;88.32;44.22;;;1.50;99.90;;;;;;4861001;29;20191;-87
2022/02/27 07:56:08;;;;;;;83.93;52.40;;;1.60;99.90;;;;;;4860685;29;20575;-87
2022/02/27 07:58:34;;;;;;;81.80;41.23;;;1.70;99.90;;;;;;4859522;29;20210;-87
2022/02/27 08:01:01;;;;;;;83.20;40.33;;;1.80;99.90;;;;;;4859508;29;20171;-87
2022/02/27 08:03:27;;;;;;;90.00;58.75;;;1.80;99.90;;;;;;4860693;29;20183;-87
2022/02/27 08:05:53;;;;;;;83.77;46.30;;;1.90;99.90;;;;;;4862283;29;20532;-87
2022/02/27 08:08:18;;;;;;;82.10;41.33;;;2.00;99.90;;;;;;4864408;29;20223;-87
2022/02/27 08:10:44;;;;;;;90.83;59.87;;;2.00;99.90;;;;;;4863241;29;20179;-87
2022/02/27 08:13:10;;;;;;;93.60;54.03;;;2.10;99.90;;;;;;4864991;29;20245;-87
2022/02/27 08:15:35;;;;;;;85.33;49.33;;;2.10;99.90;;;;;;4864417;29;20322;-87
2022/02/27 08:18:02;;;;;;;97.27;74.70;;;2.20;99.90;;;;;;4864376;29;20187;-88
2022/02/27 08:20:28;;;;;;;83.55;49.55;;;2.30;99.90;;;;;;4862820;29;20175;-88
2022/02/27 08:22:53;;;;;;;82.90;44.97;;;2.30;99.90;;;;;;4862707;29;20592;-88
2022/02/27 08:25:22;;;;;;;88.83;62.70;;;2.40;99.90;;;;;;4862841;29;20520;-88
2022/02/27 08:27:47;;;;;;;87.00;55.28;;;2.50;99.90;;;;;;4864030;29;20171;-88
2022/02/27 08:30:13;;;;;;;132.87;119.70;;;2.60;99.90;;;;;;4863917;29;20178;-88
2022/02/27 08:32:41;;;;;;;121.57;109.20;;;2.70;99.90;;;;;;4864109;29;20226;-88
2022/02/27 08:35:07;;;;;;;92.05;64.43;;;2.70;99.90;;;;;;4863768;29;20498;-88
2022/02/27 08:37:33;;;;;;;93.32;62.90;;;2.80;99.90;;;;;;4863874;29;20190;-88
2022/02/27 08:39:59;;;;;;;84.53;49.77;;;2.80;99.90;;;;;;4864263;29;20183;-88
2022/02/27 08:42:28;;;;;;;86.57;56.00;;;2.90;99.90;;;;;;4864210;29;20226;-88
2022/02/27 08:44:57;;;;;;;118.45;106.28;;;3.00;99.90;;;;;;4863711;29;20254;-88
2022/02/27 08:47:23;;;;;;;86.43;41.20;;;3.10;99.90;;;;;;4863600;29;20219;-88
2022/02/27 08:49:48;;;;;;;84.10;47.27;;;3.20;99.90;;;;;;4863582;29;20191;-88
2022/02/27 08:52:14;;;;;;;87.47;48.87;;;3.20;99.90;;;;;;4862220;29;20203;-88
2022/02/27 08:54:40;;;;;;;79.03;38.13;;;3.30;99.90;;;;;;4863779;29;20175;-88
2022/02/27 08:57:05;;;;;;;82.43;33.57;;;3.40;99.90;;;;;;4862171;29;20724;-88
2022/02/27 08:59:31;;;;;;;77.43;31.77;;;3.40;99.90;;;;;;4863864;29;20198;-88
2022/02/27 09:01:57;;;;;;;80.07;29.67;;;3.50;99.90;;;;;;4863426;29;20179;-88
2022/02/27 09:04:23;;;;;;;75.33;24.00;;;3.60;99.90;;;;;;4863242;29;20435;-88
2022/02/27 09:06:48;;;;;;;78.03;19.57;;;3.70;99.90;;;;;;4861785;29;20211;-88
2022/02/27 09:09:16;;;;;;;76.67;20.00;;;3.70;99.90;;;;;;4863225;29;20688;-88
2022/02/27 09:11:48;;;;;;;75.75;19.75;;;3.80;99.90;;;;;;4861481;29;20210;-88
2022/02/27 09:14:13;;;;;;;75.18;24.90;;;3.90;99.90;;;;;;4861982;29;20208;-88
2022/02/27 09:16:42;;;;;;;89.87;48.17;;;4.00;99.90;;;;;;4861758;29;20187;-88
2022/02/27 09:19:07;;;;;;;73.75;19.17;;;4.20;99.40;;;;;;4861859;29;20171;-87
2022/02/27 09:21:33;;;;;;;85.27;28.63;;;4.30;97.50;;;;;;4861819;29;20182;-87
2022/02/27 09:23:59;;;;;;;79.50;28.77;;;4.30;96.60;;;;;;4863028;29;20175;-87
2022/02/27 09:26:24;;;;;;;77.80;28.80;;;4.40;93.20;;;;;;4861875;29;20195;-88
2022/02/27 09:28:51;;;;;;;81.33;33.47;;;4.50;93.90;;;;;;4862952;29;20179;-87
2022/02/27 09:31:17;;;;;;;75.63;23.35;;;4.50;92.60;;;;;;4862832;29;20174;-87
2022/02/27 09:33:43;;;;;;;79.77;19.00;;;4.70;90.20;;;;;;4862929;29;20537;-87
2022/02/27 09:36:10;;;;;;;74.33;20.43;;;4.80;85.40;;;;;;4862763;29;20932;-87
2022/02/27 09:38:40;;;;;;;80.80;16.92;;;4.90;81.30;;;;;;4862858;29;20640;-87
2022/02/27 09:41:08;;;;;;;81.32;30.27;;;5.00;74.30;;;;;;4862937;29;20637;-87
2022/02/27 09:43:37;;;;;;;75.20;15.00;;;5.10;69.00;;;;;;4861881;29;20562;-87
2022/02/27 09:46:03;;;;;;;78.57;15.98;;;5.20;66.20;;;;;;4861523;29;20215;-87
2022/02/27 09:48:30;;;;;;;73.83;9.70;;;5.20;66.40;;;;;;4863411;29;20663;-86
2022/02/27 09:50:57;;;;;;;70.78;9.50;;;5.30;63.90;;;;;;4863384;29;20173;-86
2022/02/27 09:53:22;;;;;;;71.45;8.50;;;5.40;64.70;;;;;;4863773;29;20202;-87
2022/02/27 09:55:48;;;;;;;71.23;8.17;;;5.50;59.90;;;;;;4864659;29;20552;-87
2022/02/27 09:58:13;;;;;;;69.47;6.83;;;5.60;55.90;;;;;;4865064;29;20253;-86
2022/02/27 10:00:39;;;;;;;70.83;6.77;;;5.80;53.20;;;;;;4865465;29;20174;-87
2022/02/27 10:03:11;;;;;;;69.70;8.53;;;5.80;52.10;;;;;;4865645;29;20215;-86
2022/02/27 10:05:39;;;;;;;72.32;10.80;;;6.00;53.40;;;;;;4866059;29;20267;-86
2022/02/27 10:08:07;;;;;;;70.88;7.50;;;6.10;42.20;;;;;;4865426;29;20171;-86
2022/02/27 10:10:34;;;;;;;69.63;8.00;;;6.30;45.10;;;;;;4866944;29;20171;-87
2022/02/27 10:13:00;;;;;;;70.50;7.35;;;6.40;41.20;;;;;;4866894;29;20186;-86
2022/02/27 10:15:26;;;;;;;73.03;8.57;;;6.60;38.10;;;;;;4864598;29;20278;-87
2022/02/27 10:17:53;;;;;;;70.13;9.50;;;6.70;30.30;;;;;;4864206;29;20171;-87
2022/02/27 10:20:22;;;;;;;72.25;12.25;;;6.80;22.90;;;;;;4863202;29;20204;-87
2022/02/27 10:22:50;;;;;;;75.38;15.05;;;6.80;23.80;;;;;;4861604;29;20755;-87
2022/02/27 10:25:28;;;;;;;71.30;14.15;;;6.80;18.70;;;;;;4862369;29;20167;-87
2022/02/27 10:28:04;;;;;;;68.60;11.63;;;6.90;11.70;;;;;;4862526;29;20168;-87
2022/02/27 10:30:32;;;;;;;72.28;14.88;;;6.90;13.40;;;;;;4861501;29;20174;-87
2022/02/27 10:33:04;;;;;;;68.85;11.32;;;7.00;6.90;;;;;;4862306;29;20181;-87
2022/02/27 10:35:48;;;;;;;69.63;13.30;;;7.00;2.60;;;;;;4862428;29;20202;-87
2022/02/27 10:38:45;;;;;;;70.95;15.30;;;7.10;1.00;;;;;;4861980;29;20176;-87
2022/02/27 10:41:14;;;;;;;73.43;16.10;;;7.20;1.00;;;;;;4862035;29;20167;-87
2022/02/27 10:43:44;;;;;;;70.90;19.42;;;7.30;1.00;;;;;;4862035;29;20577;-87
2022/02/27 10:46:11;;;;;;;70.72;16.70;;;7.30;1.00;;;;;;4861916;29;20372;-87
2022/02/27 10:48:37;;;;;;;71.22;19.83;;;7.40;2.90;;;;;;4862006;29;20246;-87
2022/02/27 10:51:09;;;;;;;74.32;21.30;;;7.40;1.00;;;;;;4861932;29;20167;-87
2022/02/27 10:53:36;;;;;;;77.85;21.05;;;7.50;1.00;;;;;;4862543;29;20187;-87
2022/02/27 10:56:10;;;;;;;72.32;22.40;;;7.60;1.00;;;;;;4860629;29;20188;-87
2022/02/27 10:58:46;;;;;;;72.53;15.55;;;7.60;1.00;;;;;;4860822;29;20215;-87
2022/02/27 11:01:26;;;;;;;71.10;17.95;;;7.80;1.00;;;;;;4862203;29;20183;-87
2022/02/27 11:03:55;;;;;;;71.45;19.40;;;8.00;1.00;;;;;;4963236;23;20235;-87
2022/02/27 11:06:22;;;;;;;75.68;15.90;;;8.10;1.00;;;;;;4877063;29;20187;-87
2022/02/27 11:08:49;;;;;;;68.40;13.07;;;8.20;1.00;;;;;;4876845;29;20174;-86
2022/02/27 11:11:16;;;;;;;69.70;13.30;;;8.10;1.00;;;;;;4874189;29;20178;-87
2022/02/27 11:13:45;;;;;;;72.07;15.73;;;8.20;1.00;;;;;;4875614;29;20200;-87
2022/02/27 11:16:13;;;;;;;70.55;9.73;;;8.10;1.00;;;;;;4876662;29;20183;-87
2022/02/27 11:18:39;;;;;;;68.95;9.80;;;8.10;1.00;;;;;;4875995;29;20179;-87
2022/02/27 11:21:05;;;;;;;69.35;10.07;;;8.30;1.00;;;;;;4875772;29;20178;-87
2022/02/27 11:23:32;;;;;;;67.38;7.95;;;8.30;1.00;;;;;;4875526;29;20167;-87
2022/02/27 11:26:02;;;;;;;66.47;7.75;;;8.40;1.00;;;;;;4876043;29;20529;-87
2022/02/27 11:28:29;;;;;;;66.32;9.82;;;8.40;1.00;;;;;;4877071;29;20227;-86
2022/02/27 11:31:05;;;;;;;68.25;11.23;;;8.50;1.00;;;;;;4874858;29;20171;-86
2022/02/27 11:33:30;;;;;;;66.55;7.32;;;8.50;1.00;;;;;;4872825;29;20163;-87
2022/02/27 11:35:58;;;;;;;67.50;9.30;;;8.60;1.00;;;;;;4875170;29;20198;-86
2022/02/27 11:38:32;;;;;;;67.93;9.23;;;8.60;1.00;;;;;;4875436;29;20175;-86
2022/02/27 11:40:59;;;;;;;68.50;8.05;;;8.70;1.00;;;;;;4873795;29;20269;-87
2022/02/27 11:43:53;;;;;;;68.38;9.95;;;8.70;1.00;;;;;;4875497;29;20307;-86
2022/02/27 11:46:41;;;;;;;68.30;8.93;;;8.90;1.00;;;;;;4871332;29;20203;-88
2022/02/27 11:49:20;;;;;;;67.85;8.18;;;8.90;1.00;;;;;;4874274;29;20151;-87
2022/02/27 11:52:08;;;;;;;72.63;8.32;;;8.90;1.00;;;;;;4874298;29;20233;-87
2022/02/27 11:54:46;;;;;;;68.43;10.65;;;8.90;1.00;;;;;;4873122;29;20186;-87
2022/02/27 11:57:29;;;;;;;69.15;11.70;;;9.10;1.00;;;;;;4874390;29;20194;-87
2022/02/27 12:00:08;;;;;;;67.55;9.52;;;9.20;1.00;;;;;;4874488;29;20175;-87
2022/02/27 12:02:35;;;;;;;69.35;8.32;;;9.20;1.00;;;;;;4873209;29;20199;-87
2022/02/27 12:05:06;;;;;;;67.75;8.32;;;9.10;1.00;;;;;;4875625;29;20586;-87
2022/02/27 12:07:58;;;;;;;67.70;8.35;;;9.00;1.00;;;;;;4873054;29;20175;-87
2022/02/27 12:10:46;;;;;;;69.53;8.98;;;9.10;1.00;;;;;;4874121;29;20176;-87
2022/02/27 12:13:31;;;;;;;70.70;9.55;;;9.20;1.00;;;;;;4873999;29;20186;-87
2022/02/27 12:16:03;;;;;;;70.40;9.32;;;9.20;1.00;;;;;;4874472;29;20195;-86
2022/02/27 12:18:29;;;;;;;68.07;10.00;;;9.20;1.00;;;;;;4873738;29;20229;-87
2022/02/27 12:20:58;;;;;;;67.73;9.90;;;9.30;1.00;;;;;;4874536;29;20178;-86
2022/02/27 12:23:41;;;;;;;67.57;7.90;;;9.20;1.00;;;;;;4876150;29;20455;-87
2022/02/27 12:26:32;;;;;;;67.25;8.70;;;9.20;1.00;;;;;;4874895;29;20203;-88
2022/02/27 12:29:02;;;;;;;69.40;12.60;;;9.30;1.00;;;;;;4874381;29;20210;-86
2022/02/27 12:31:30;;;;;;;67.80;12.32;;;9.40;1.00;;;;;;4873784;29;20206;-87
2022/02/27 12:33:58;;;;;;;72.70;13.82;;;9.40;1.00;;;;;;4874016;29;20175;-86
2022/02/27 12:36:25;;;;;;;66.85;11.68;;;9.40;1.00;;;;;;4875007;29;20195;-86
2022/02/27 12:39:02;;;;;;;66.72;10.00;;;9.40;1.00;;;;;;4875377;29;20236;-87